createdAt,value
2018-12-06T00:01:27.569Z,8.70
2018-12-06T00:03:55.141Z,8.70
2018-12-06T00:06:22.684Z,8.70
2018-12-06T00:08:50.259Z,8.70
2018-12-06T00:11:17.828Z,8.80
2018-12-06T00:13:45.398Z,8.80
2018-12-06T00:16:14.668Z,8.70
2018-12-06T00:18:42.245Z,8.70
2018-12-06T00:21:09.789Z,8.70
2018-12-06T00:23:37.368Z,8.60
2018-12-06T00:26:05.676Z,8.70
2018-12-06T00:28:33.247Z,8.70
2018-12-06T00:31:00.786Z,8.70
2018-12-06T00:33:30.296Z,8.70
2018-12-06T00:35:57.872Z,8.70
2018-12-06T00:38:25.436Z,8.70
2018-12-06T00:40:52.981Z,8.70
2018-12-06T00:43:21.479Z,8.70
2018-12-06T00:45:49.065Z,8.90
2018-12-06T00:48:17.372Z,8.90
2018-12-06T00:50:44.957Z,8.90
2018-12-06T00:53:12.501Z,9.00
2018-12-06T00:55:40.085Z,9.00
2018-12-06T00:58:07.624Z,9.20
2018-12-06T01:00:36.098Z,9.30
2018-12-06T01:03:03.661Z,9.30
2018-12-06T01:05:31.241Z,9.30
2018-12-06T01:07:58.825Z,9.40
2018-12-06T01:10:26.360Z,9.40
2018-12-06T01:12:53.950Z,9.30
2018-12-06T01:15:21.492Z,9.40
2018-12-06T01:17:50.999Z,9.90
2018-12-06T01:20:18.542Z,10.30
2018-12-06T01:22:46.147Z,10.50
2018-12-06T01:25:13.686Z,10.60
2018-12-06T01:27:41.285Z,11.00
2018-12-06T01:30:08.831Z,10.90
2018-12-06T01:32:36.376Z,10.60
2018-12-06T01:35:03.948Z,10.50
2018-12-06T01:37:32.488Z,10.50
2018-12-06T01:40:00.067Z,10.40
2018-12-06T01:42:27.605Z,10.30
2018-12-06T01:44:55.152Z,10.40
2018-12-06T01:47:22.726Z,10.40
2018-12-06T01:49:50.266Z,10.40
2018-12-06T01:52:18.604Z,10.40
2018-12-06T01:54:46.141Z,10.40
2018-12-06T01:57:13.715Z,10.40
2018-12-06T01:59:42.227Z,10.40
2018-12-06T02:02:10.559Z,10.90
2018-12-06T02:04:38.095Z,10.80
2018-12-06T02:07:05.687Z,11.20
2018-12-06T02:09:33.232Z,11.80
2018-12-06T02:12:00.767Z,11.90
2018-12-06T02:14:28.345Z,12.10
2018-12-06T02:16:55.908Z,12.10
2018-12-06T02:19:25.416Z,12.10
2018-12-06T02:21:52.955Z,12.00
2018-12-06T02:24:20.523Z,12.20
2018-12-06T02:26:48.859Z,12.10
2018-12-06T02:29:16.444Z,12.00
2018-12-06T02:31:44.960Z,12.10
2018-12-06T02:34:12.535Z,12.10
2018-12-06T02:36:40.108Z,12.00
2018-12-06T02:39:09.664Z,12.00
2018-12-06T02:41:37.213Z,11.90
2018-12-06T02:44:04.987Z,11.90
2018-12-06T02:46:32.564Z,12.00
2018-12-06T02:49:00.137Z,12.00
2018-12-06T02:51:27.686Z,12.00
2018-12-06T02:53:57.959Z,11.90
2018-12-06T02:56:26.603Z,11.90
2018-12-06T02:58:54.906Z,11.90
2018-12-06T03:01:22.452Z,11.90
2018-12-06T03:03:50.035Z,11.80
2018-12-06T03:06:18.583Z,11.80
2018-12-06T03:08:46.159Z,11.80
2018-12-06T03:11:13.711Z,11.70
2018-12-06T03:13:41.282Z,11.70
2018-12-06T03:16:08.857Z,11.70
2018-12-06T03:18:36.401Z,11.60
2018-12-06T03:21:03.973Z,11.70
2018-12-06T03:23:31.514Z,11.70
2018-12-06T03:25:59.097Z,11.60
2018-12-06T03:28:26.635Z,11.60
2018-12-06T03:30:54.178Z,11.50
2018-12-06T03:33:21.757Z,11.50
2018-12-06T03:35:49.340Z,11.40
2018-12-06T03:38:16.938Z,11.30
2018-12-06T03:40:44.492Z,11.20
2018-12-06T03:43:12.068Z,11.20
2018-12-06T03:45:40.615Z,11.10
2018-12-06T03:48:08.956Z,11.00
2018-12-06T03:50:36.515Z,11.00
2018-12-06T03:53:04.099Z,10.90
2018-12-06T03:55:31.678Z,10.90
2018-12-06T03:57:59.222Z,10.90
2018-12-06T04:00:26.810Z,10.80
2018-12-06T04:02:54.357Z,10.80
2018-12-06T04:05:23.845Z,10.80
2018-12-06T04:07:51.392Z,10.70
2018-12-06T04:10:21.626Z,10.60
2018-12-06T04:12:49.201Z,10.50
2018-12-06T04:15:17.723Z,10.60
2018-12-06T04:17:45.292Z,10.50
2018-12-06T04:20:13.592Z,10.40
2018-12-06T04:22:41.358Z,10.40
2018-12-06T04:25:09.892Z,10.40
2018-12-06T04:27:37.472Z,10.40
2018-12-06T04:30:05.780Z,10.50
2018-12-06T04:32:33.366Z,10.40
2018-12-06T04:35:00.916Z,10.50
2018-12-06T04:37:28.458Z,10.50
2018-12-06T04:39:56.033Z,10.40
2018-12-06T04:42:23.606Z,10.40
2018-12-06T04:44:51.184Z,10.40
2018-12-06T04:47:19.690Z,10.40
2018-12-06T04:49:47.254Z,10.50
2018-12-06T04:52:14.824Z,10.50
2018-12-06T04:54:42.400Z,10.50
2018-12-06T04:57:09.942Z,10.50
2018-12-06T04:59:37.508Z,10.60
2018-12-06T05:02:05.052Z,10.60
2018-12-06T05:04:32.626Z,10.60
2018-12-06T05:07:00.161Z,10.60
2018-12-06T05:09:27.728Z,10.60
2018-12-06T05:11:55.260Z,10.60
2018-12-06T05:14:22.844Z,10.70
2018-12-06T05:16:50.416Z,10.60
2018-12-06T05:19:17.984Z,10.60
2018-12-06T05:21:45.524Z,10.60
2018-12-06T05:24:15.059Z,10.60
2018-12-06T05:26:42.633Z,10.70
2018-12-06T05:29:10.213Z,10.70
2018-12-06T05:31:38.712Z,10.70
2018-12-06T05:34:06.257Z,10.70
2018-12-06T05:36:35.752Z,10.80
2018-12-06T05:39:03.291Z,10.90
2018-12-06T05:41:30.859Z,10.90
2018-12-06T05:43:58.400Z,10.90
2018-12-06T05:46:25.972Z,10.90
2018-12-06T05:48:53.521Z,10.90
2018-12-06T05:51:21.092Z,10.90
2018-12-06T05:53:49.388Z,10.90
2018-12-06T05:56:17.004Z,10.90
2018-12-06T05:58:44.545Z,10.90
2018-12-06T06:01:12.113Z,10.90
2018-12-06T06:03:39.653Z,10.80
2018-12-06T06:06:07.227Z,10.90
2018-12-06T06:08:34.799Z,10.90
2018-12-06T06:11:03.255Z,10.80
2018-12-06T06:13:32.756Z,10.80
2018-12-06T06:16:00.325Z,10.80
2018-12-06T06:18:28.891Z,10.90
2018-12-06T06:20:56.428Z,10.80
2018-12-06T06:23:23.995Z,10.80
2018-12-06T06:25:51.568Z,10.80
2018-12-06T06:28:19.136Z,10.80
2018-12-06T06:30:46.682Z,10.80
2018-12-06T06:33:14.257Z,10.80
2018-12-06T06:35:42.995Z,10.80
2018-12-06T06:38:10.575Z,10.90
2018-12-06T06:40:38.117Z,10.90
2018-12-06T06:43:05.688Z,10.90
2018-12-06T06:45:33.264Z,11.00
2018-12-06T06:48:00.851Z,11.00
2018-12-06T06:50:28.444Z,11.10
2018-12-06T06:52:56.016Z,11.10
2018-12-06T06:55:24.571Z,11.20
2018-12-06T06:57:52.136Z,11.20
2018-12-06T07:00:19.693Z,11.30
2018-12-06T07:02:47.265Z,11.30
2018-12-06T07:05:14.843Z,11.20
2018-12-06T07:07:42.423Z,11.30
2018-12-06T07:10:09.978Z,11.30
2018-12-06T07:12:37.523Z,11.40
2018-12-06T07:15:05.860Z,11.40
2018-12-06T07:17:33.404Z,11.40
2018-12-06T07:20:01.081Z,11.40
2018-12-06T07:22:28.636Z,11.40
2018-12-06T07:24:56.208Z,11.30
2018-12-06T07:27:23.744Z,11.30
2018-12-06T07:29:51.316Z,11.30
2018-12-06T07:32:18.860Z,11.30
2018-12-06T07:34:46.432Z,11.30
2018-12-06T07:37:13.973Z,11.30
2018-12-06T07:39:41.545Z,11.20
2018-12-06T07:42:10.063Z,11.10
2018-12-06T07:44:38.416Z,11.20
2018-12-06T07:47:06.023Z,11.20
2018-12-06T07:49:33.608Z,11.20
2018-12-06T07:52:01.150Z,11.20
2018-12-06T07:54:28.732Z,11.20
2018-12-06T07:56:56.265Z,11.20
2018-12-06T07:59:24.094Z,11.20
2018-12-06T08:01:52.700Z,11.10
2018-12-06T08:04:20.336Z,11.20
2018-12-06T08:06:48.827Z,11.10
2018-12-06T08:09:16.400Z,11.00
2018-12-06T08:11:43.947Z,11.00
2018-12-06T08:14:11.520Z,11.00
2018-12-06T08:16:39.072Z,10.90
2018-12-06T08:19:06.649Z,11.00
2018-12-06T08:21:35.156Z,11.00
2018-12-06T08:24:03.754Z,11.10
2018-12-06T08:26:31.287Z,11.10
2018-12-06T08:28:58.855Z,11.20
2018-12-06T08:31:26.397Z,11.30
2018-12-06T08:33:53.933Z,11.30
2018-12-06T08:36:21.503Z,11.30
2018-12-06T08:38:49.042Z,11.30
2018-12-06T08:41:16.652Z,11.30
2018-12-06T08:43:44.218Z,11.30
2018-12-06T08:46:11.768Z,11.40
2018-12-06T08:48:39.349Z,11.50
2018-12-06T08:51:07.687Z,11.40
2018-12-06T08:53:35.251Z,11.40
2018-12-06T08:56:02.787Z,11.20
2018-12-06T08:58:30.411Z,11.20
2018-12-06T09:00:57.989Z,11.10
2018-12-06T09:03:25.556Z,11.10
2018-12-06T09:05:53.094Z,11.10
2018-12-06T09:08:20.671Z,11.00
2018-12-06T09:10:51.512Z,10.90
2018-12-06T09:13:15.869Z,10.80
2018-12-06T09:15:43.416Z,10.80
2018-12-06T09:18:11.000Z,10.90
2018-12-06T09:20:38.573Z,11.10
2018-12-06T09:23:06.141Z,11.00
2018-12-06T09:25:33.784Z,11.10
2018-12-06T09:28:01.355Z,11.10
2018-12-06T09:30:28.936Z,11.20
2018-12-06T09:32:56.508Z,11.30
2018-12-06T09:35:24.050Z,11.30
2018-12-06T09:37:51.664Z,11.40
2018-12-06T09:40:19.235Z,11.40
2018-12-06T09:42:46.819Z,11.40
2018-12-06T09:45:14.367Z,11.30
2018-12-06T09:47:41.937Z,11.10
2018-12-06T09:50:11.191Z,10.90
2018-12-06T09:52:38.734Z,10.90
2018-12-06T09:55:06.269Z,11.00
2018-12-06T09:57:33.841Z,11.00
2018-12-06T10:00:01.990Z,11.00
2018-12-06T10:02:30.332Z,11.30
2018-12-06T10:04:59.132Z,11.30
2018-12-06T10:07:26.672Z,11.30
2018-12-06T10:09:54.253Z,11.30
2018-12-06T10:12:22.596Z,11.30
2018-12-06T10:14:50.160Z,11.30
2018-12-06T10:17:18.676Z,11.30
2018-12-06T10:19:46.243Z,11.40
2018-12-06T10:22:13.828Z,11.40
2018-12-06T10:24:41.468Z,11.40
2018-12-06T10:27:10.460Z,11.50
2018-12-06T10:29:38.032Z,11.70
2018-12-06T10:32:05.579Z,11.80
2018-12-06T10:34:33.143Z,12.00
2018-12-06T10:37:00.690Z,12.10
2018-12-06T10:39:28.232Z,12.30
2018-12-06T10:41:56.790Z,12.50
2018-12-06T10:44:26.168Z,12.60
2018-12-06T10:46:53.764Z,12.80
2018-12-06T10:49:23.275Z,12.80
2018-12-06T10:51:50.817Z,12.80
2018-12-06T10:54:19.160Z,12.90
2018-12-06T10:56:48.220Z,12.90
2018-12-06T10:59:15.852Z,12.70
2018-12-06T11:01:46.317Z,12.80
2018-12-06T11:04:13.920Z,12.80
2018-12-06T11:06:42.313Z,12.90
2018-12-06T11:09:10.652Z,13.00
2018-12-06T11:11:38.188Z,13.00
2018-12-06T11:14:06.663Z,13.00
2018-12-06T11:16:34.240Z,13.10
2018-12-06T11:19:01.784Z,13.20
2018-12-06T11:21:29.352Z,12.90
2018-12-06T11:23:56.886Z,12.90
2018-12-06T11:26:24.459Z,12.60
2018-12-06T11:28:52.060Z,12.60
2018-12-06T11:31:19.650Z,12.60
2018-12-06T11:33:47.180Z,12.70
2018-12-06T11:36:14.838Z,12.80
2018-12-06T11:38:42.333Z,12.70
2018-12-06T11:41:09.906Z,12.70
2018-12-06T11:43:37.446Z,12.70
2018-12-06T11:46:06.031Z,12.70
2018-12-06T11:48:33.564Z,12.80
2018-12-06T11:51:03.056Z,12.90
2018-12-06T11:53:30.600Z,13.00
2018-12-06T11:55:58.142Z,13.00
2018-12-06T11:58:25.715Z,12.80
2018-12-06T12:00:53.261Z,12.70
2018-12-06T12:03:22.751Z,12.50
2018-12-06T12:05:50.300Z,12.50
2018-12-06T12:08:17.873Z,12.60
2018-12-06T12:10:45.413Z,12.50
2018-12-06T12:13:15.035Z,12.60
2018-12-06T12:15:42.544Z,12.60
2018-12-06T12:18:10.121Z,12.80
2018-12-06T12:20:37.661Z,13.00
2018-12-06T12:23:05.266Z,13.00
2018-12-06T12:25:32.800Z,12.90
2018-12-06T12:28:00.376Z,12.80
2018-12-06T12:30:27.916Z,12.80
2018-12-06T12:32:55.490Z,12.80
2018-12-06T12:35:23.023Z,12.90
2018-12-06T12:37:50.591Z,13.10
2018-12-06T12:40:18.138Z,13.20
2018-12-06T12:42:45.725Z,13.30
2018-12-06T12:45:13.280Z,13.40
2018-12-06T12:47:40.821Z,13.40
2018-12-06T12:50:08.400Z,13.30
2018-12-06T12:52:35.939Z,13.40
2018-12-06T12:55:03.517Z,13.50
2018-12-06T12:57:31.087Z,13.50
2018-12-06T13:00:00.583Z,13.40
2018-12-06T13:02:28.221Z,13.40
2018-12-06T13:04:55.791Z,13.40
2018-12-06T13:07:23.328Z,13.20
2018-12-06T13:09:52.832Z,13.30
2018-12-06T13:12:20.365Z,13.60
2018-12-06T13:14:47.958Z,13.70
2018-12-06T13:17:15.502Z,14.00
2018-12-06T13:19:43.067Z,14.20
2018-12-06T13:22:10.600Z,14.10
2018-12-06T13:24:38.181Z,14.20
2018-12-06T13:27:05.722Z,14.30
2018-12-06T13:29:33.300Z,14.50
2018-12-06T13:32:00.851Z,14.50
2018-12-06T13:34:28.431Z,14.40
2018-12-06T13:36:55.974Z,14.40
2018-12-06T13:39:25.484Z,14.60
2018-12-06T13:41:53.020Z,14.60
2018-12-06T13:44:20.588Z,14.50
2018-12-06T13:46:48.129Z,14.20
2018-12-06T13:49:15.756Z,14.10
2018-12-06T13:51:43.292Z,14.00
2018-12-06T13:54:11.628Z,13.90
2018-12-06T13:56:39.173Z,13.90
2018-12-06T13:59:06.754Z,14.00
2018-12-06T14:01:34.308Z,13.80
2018-12-06T14:04:01.849Z,13.80
2018-12-06T14:06:29.416Z,13.30
2018-12-06T14:08:56.947Z,13.30
2018-12-06T14:11:24.520Z,13.20
2018-12-06T14:13:52.056Z,13.00
2018-12-06T14:16:19.597Z,13.00
2018-12-06T14:18:47.185Z,13.00
2018-12-06T14:21:14.729Z,13.00
2018-12-06T14:23:42.294Z,12.80
2018-12-06T14:26:11.167Z,12.70
2018-12-06T14:28:37.616Z,12.50
2018-12-06T14:31:05.162Z,12.50
2018-12-06T14:33:32.739Z,12.40
2018-12-06T14:36:00.276Z,12.40
2018-12-06T14:38:27.848Z,12.30
2018-12-06T14:40:55.384Z,12.30
2018-12-06T14:43:22.956Z,12.30
2018-12-06T14:45:51.456Z,12.40
2018-12-06T14:48:19.031Z,12.40
2018-12-06T14:50:46.572Z,12.40
2018-12-06T14:53:14.153Z,12.50
2018-12-06T14:55:41.701Z,12.50
2018-12-06T14:58:09.268Z,12.60
2018-12-06T15:00:36.808Z,12.60
2018-12-06T15:03:04.725Z,12.70
2018-12-06T15:05:32.312Z,12.80
2018-12-06T15:07:59.849Z,12.80
2018-12-06T15:10:27.397Z,12.80
2018-12-06T15:12:54.966Z,12.80
2018-12-06T15:15:22.504Z,12.80
2018-12-06T15:17:50.076Z,12.80
2018-12-06T15:20:17.620Z,12.70
2018-12-06T15:22:45.193Z,12.70
2018-12-06T15:25:12.728Z,12.60
2018-12-06T15:27:40.311Z,12.50
2018-12-06T15:30:07.849Z,12.50
2018-12-06T15:32:35.420Z,12.30
2018-12-06T15:35:03.166Z,12.20
2018-12-06T15:37:30.751Z,12.20
2018-12-06T15:39:58.292Z,12.10
2018-12-06T15:42:25.865Z,12.20
2018-12-06T15:44:53.600Z,12.30
2018-12-06T15:47:21.172Z,12.30
2018-12-06T15:49:48.817Z,12.40
2018-12-06T15:52:16.364Z,12.30
2018-12-06T15:54:43.965Z,12.30
2018-12-06T15:57:11.818Z,12.30
2018-12-06T15:59:39.454Z,12.30
2018-12-06T16:02:07.025Z,12.30
2018-12-06T16:04:34.679Z,12.30
2018-12-06T16:07:02.244Z,12.30
2018-12-06T16:09:30.744Z,12.30
2018-12-06T16:11:58.324Z,12.30
2018-12-06T16:14:25.880Z,12.30
2018-12-06T16:16:53.471Z,12.30
2018-12-06T16:19:21.019Z,12.20
2018-12-06T16:21:50.220Z,12.00
2018-12-06T16:24:17.769Z,12.00
2018-12-06T16:26:46.103Z,11.90
2018-12-06T16:29:13.659Z,11.90
2018-12-06T16:31:41.252Z,11.90
2018-12-06T16:34:08.819Z,11.80
2018-12-06T16:36:37.127Z,11.70
2018-12-06T16:39:04.699Z,11.60
2018-12-06T16:41:32.237Z,11.60
2018-12-06T16:43:59.829Z,11.60
2018-12-06T16:46:27.381Z,11.50
2018-12-06T16:48:54.964Z,11.50
2018-12-06T16:51:22.603Z,11.40
2018-12-06T16:53:50.126Z,11.50
2018-12-06T16:56:17.663Z,11.40
2018-12-06T16:58:45.244Z,11.30
2018-12-06T17:01:12.783Z,11.20
2018-12-06T17:03:40.321Z,11.10
2018-12-06T17:06:07.889Z,11.20
2018-12-06T17:08:36.201Z,11.40
2018-12-06T17:11:03.834Z,11.40
2018-12-06T17:13:31.385Z,11.40
2018-12-06T17:15:58.959Z,11.10
2018-12-06T17:18:26.588Z,11.00
2018-12-06T17:20:54.164Z,11.10
2018-12-06T17:23:22.508Z,11.30
2018-12-06T17:25:51.999Z,11.30
2018-12-06T17:28:19.536Z,11.60
2018-12-06T17:30:47.111Z,11.80
2018-12-06T17:33:14.659Z,11.90
2018-12-06T17:35:42.235Z,11.90
2018-12-06T17:38:09.828Z,11.90
2018-12-06T17:40:37.408Z,11.80
2018-12-06T17:43:04.965Z,11.80
2018-12-06T17:45:32.626Z,11.90
2018-12-06T17:48:00.135Z,11.80
2018-12-06T17:50:29.651Z,11.70
2018-12-06T17:52:57.197Z,11.80
2018-12-06T17:55:24.782Z,11.90
2018-12-06T17:57:52.320Z,11.90
2018-12-06T18:00:19.888Z,12.00
2018-12-06T18:02:48.193Z,12.10
2018-12-06T18:05:17.720Z,12.10
2018-12-06T18:07:45.261Z,12.20
2018-12-06T18:10:12.840Z,12.20
2018-12-06T18:12:40.385Z,12.20
2018-12-06T18:15:07.961Z,12.20
2018-12-06T18:17:37.472Z,12.20
2018-12-06T18:20:05.012Z,12.20
2018-12-06T18:22:32.840Z,12.30
2018-12-06T18:25:00.409Z,12.30
2018-12-06T18:27:27.993Z,12.30
2018-12-06T18:29:55.576Z,12.30
2018-12-06T18:32:23.288Z,12.30
2018-12-06T18:34:50.832Z,12.40
2018-12-06T18:37:18.408Z,12.40
2018-12-06T18:39:46.007Z,12.40
2018-12-06T18:42:14.345Z,12.50
2018-12-06T18:44:41.884Z,12.50
2018-12-06T18:47:09.463Z,12.50
2018-12-06T18:49:37.003Z,12.50
2018-12-06T18:52:04.588Z,12.50
2018-12-06T18:54:32.160Z,12.50
2018-12-06T18:56:59.746Z,12.50
2018-12-06T18:59:27.346Z,12.50
2018-12-06T19:01:54.924Z,12.60
2018-12-06T19:04:22.484Z,12.50
2018-12-06T19:06:50.069Z,12.50
2018-12-06T19:09:18.413Z,12.60
2018-12-06T19:11:45.952Z,12.60
2018-12-06T19:14:13.534Z,12.60
2018-12-06T19:16:41.103Z,12.50
2018-12-06T19:19:09.670Z,12.60
2018-12-06T19:21:37.215Z,12.50
2018-12-06T19:24:05.806Z,12.50
2018-12-06T19:26:33.387Z,12.60
2018-12-06T19:29:00.936Z,12.60
2018-12-06T19:31:28.530Z,12.60
2018-12-06T19:33:56.118Z,12.60
2018-12-06T19:36:23.659Z,12.70
2018-12-06T19:38:52.228Z,12.60
2018-12-06T19:41:19.805Z,12.60
2018-12-06T19:43:47.776Z,12.60
2018-12-06T19:46:15.332Z,12.60
2018-12-06T19:48:42.900Z,12.60
2018-12-06T19:51:10.473Z,12.60
2018-12-06T19:53:38.045Z,12.60
2018-12-06T19:56:06.571Z,12.60
2018-12-06T19:58:35.191Z,12.60
2018-12-06T20:01:02.770Z,12.50
2018-12-06T20:03:30.352Z,12.50
2018-12-06T20:05:57.968Z,12.60
2018-12-06T20:08:25.552Z,12.60
2018-12-06T20:10:53.126Z,12.60
2018-12-06T20:13:22.415Z,12.60
2018-12-06T20:15:50.716Z,12.50
2018-12-06T20:18:18.888Z,12.50
2018-12-06T20:20:46.426Z,12.50
2018-12-06T20:23:14.039Z,12.50
2018-12-06T20:25:41.577Z,12.50
2018-12-06T20:28:09.124Z,12.50
2018-12-06T20:30:36.788Z,12.50
2018-12-06T20:33:04.356Z,12.50
2018-12-06T20:35:31.927Z,12.40
2018-12-06T20:37:59.459Z,12.40
2018-12-06T20:40:27.000Z,12.50
2018-12-06T20:42:54.578Z,12.50
2018-12-06T20:45:22.233Z,12.50
2018-12-06T20:47:49.773Z,12.50
2018-12-06T20:50:17.351Z,12.50
2018-12-06T20:52:45.859Z,12.40
2018-12-06T20:55:13.432Z,12.50
2018-12-06T20:57:40.991Z,12.50
2018-12-06T21:00:08.563Z,12.50
2018-12-06T21:02:36.107Z,12.40
2018-12-06T21:05:03.685Z,12.40
2018-12-06T21:07:31.224Z,12.50
2018-12-06T21:09:58.805Z,12.50
2018-12-06T21:12:28.397Z,12.50
2018-12-06T21:14:56.739Z,12.50
2018-12-06T21:17:24.280Z,12.50
2018-12-06T21:19:51.827Z,12.60
2018-12-06T21:22:19.413Z,12.60
2018-12-06T21:24:46.964Z,12.60
2018-12-06T21:27:14.535Z,12.60
2018-12-06T21:29:42.080Z,12.60
2018-12-06T21:32:09.652Z,12.60
2018-12-06T21:34:37.372Z,12.60
2018-12-06T21:37:04.964Z,12.70
2018-12-06T21:39:32.590Z,12.70
2018-12-06T21:42:00.169Z,12.60
2018-12-06T21:44:27.744Z,12.60
2018-12-06T21:46:55.319Z,12.60
2018-12-06T21:49:22.883Z,12.60
2018-12-06T21:51:50.424Z,12.60
2018-12-06T21:54:17.992Z,12.60
2018-12-06T21:56:46.492Z,12.60
2018-12-06T21:59:16.021Z,12.60
2018-12-06T22:01:43.820Z,12.70
2018-12-06T22:04:11.400Z,12.70
2018-12-06T22:06:39.743Z,12.80
2018-12-06T22:09:07.582Z,12.70
2018-12-06T22:11:35.255Z,12.70
2018-12-06T22:14:03.773Z,12.60
2018-12-06T22:16:31.355Z,12.60
2018-12-06T22:18:58.895Z,12.60
2018-12-06T22:21:27.242Z,12.60
2018-12-06T22:23:54.772Z,12.60
2018-12-06T22:26:23.329Z,12.60
2018-12-06T22:28:50.913Z,12.60
2018-12-06T22:31:18.452Z,12.60
2018-12-06T22:33:46.025Z,12.60
2018-12-06T22:36:13.563Z,12.60
2018-12-06T22:38:41.139Z,12.70
2018-12-06T22:41:08.680Z,12.60
2018-12-06T22:43:36.252Z,12.60
2018-12-06T22:46:03.854Z,12.60
2018-12-06T22:48:31.432Z,12.60
2018-12-06T22:50:59.740Z,12.60
2018-12-06T22:53:27.279Z,12.60
2018-12-06T22:55:54.856Z,12.60
2018-12-06T22:58:22.396Z,12.60
2018-12-06T23:00:51.936Z,12.60
2018-12-06T23:03:19.477Z,12.60
2018-12-06T23:05:47.052Z,12.60
2018-12-06T23:08:14.596Z,12.60
2018-12-06T23:10:42.232Z,12.60
2018-12-06T23:13:09.756Z,12.50
2018-12-06T23:15:38.308Z,12.50
2018-12-06T23:18:05.849Z,12.50
2018-12-06T23:20:33.399Z,12.50
2018-12-06T23:23:00.967Z,12.50
2018-12-06T23:25:28.544Z,12.50
2018-12-06T23:27:56.090Z,12.50
2018-12-06T23:30:23.660Z,12.40
2018-12-06T23:32:51.203Z,12.40
2018-12-06T23:35:18.784Z,12.40
2018-12-06T23:37:46.344Z,12.40
2018-12-06T23:40:13.923Z,12.40
2018-12-06T23:42:41.464Z,12.50
2018-12-06T23:45:09.048Z,12.50
2018-12-06T23:47:36.583Z,12.50
2018-12-06T23:50:04.155Z,12.50
2018-12-06T23:52:31.695Z,12.50
2018-12-06T23:55:00.009Z,12.60
2018-12-06T23:57:27.580Z,12.60
2018-12-06T23:59:55.129Z,12.60
